createdAt,value
2023-02-05T00:04:58.709Z,1.88
2023-02-05T00:10:30.176Z,1.65
2023-02-05T00:16:01.332Z,1.67
2023-02-05T00:21:32.680Z,1.33
2023-02-05T00:27:04.010Z,1.55
2023-02-05T00:32:35.222Z,1.60
2023-02-05T00:38:06.774Z,1.33
2023-02-05T00:43:39.338Z,1.25
2023-02-05T00:49:10.406Z,1.40
2023-02-05T00:54:41.670Z,1.40
2023-02-05T01:00:13.468Z,1.20
2023-02-05T01:05:44.899Z,1.25
2023-02-05T01:11:16.263Z,1.45
2023-02-05T01:16:47.378Z,1.88
2023-02-05T01:22:18.528Z,1.33
2023-02-05T01:27:50.135Z,1.67
2023-02-05T01:33:21.417Z,1.50
2023-02-05T01:38:54.515Z,1.50
2023-02-05T01:44:26.374Z,1.27
2023-02-05T01:49:58.169Z,1.42
2023-02-05T01:55:30.349Z,1.23
2023-02-05T02:01:02.172Z,1.63
2023-02-05T02:06:35.586Z,1.10
2023-02-05T02:12:08.961Z,1.50
2023-02-05T02:17:43.707Z,1.63
2023-02-05T02:23:33.523Z,1.70
2023-02-05T02:29:05.415Z,1.50
2023-02-05T02:34:45.039Z,1.30
2023-02-05T02:40:22.485Z,1.40
2023-02-05T02:46:04.312Z,1.42
2023-02-05T02:51:38.971Z,1.45
2023-02-05T02:57:10.924Z,1.60
2023-02-05T03:02:44.329Z,1.55
2023-02-05T03:08:24.000Z,1.55
2023-02-05T03:13:56.612Z,1.38
2023-02-05T03:19:32.225Z,1.55
2023-02-05T03:25:06.579Z,1.70
2023-02-05T03:31:02.340Z,1.05
2023-02-05T03:36:43.802Z,1.55
2023-02-05T03:42:27.754Z,1.33
2023-02-05T03:48:05.587Z,1.60
2023-02-05T03:53:38.896Z,1.48
2023-02-05T03:59:14.000Z,1.30
2023-02-05T04:04:46.397Z,1.60
2023-02-05T04:10:19.739Z,1.10
2023-02-05T04:15:52.382Z,1.30
2023-02-05T04:21:23.972Z,1.33
2023-02-05T04:26:56.322Z,1.65
2023-02-05T04:32:28.417Z,1.30
2023-02-05T04:38:00.334Z,1.30
2023-02-05T04:43:32.139Z,1.42
2023-02-05T04:49:03.204Z,1.70
2023-02-05T04:54:36.029Z,1.40
2023-02-05T05:00:08.155Z,1.73
2023-02-05T05:05:39.123Z,1.25
2023-02-05T05:11:14.926Z,1.30
2023-02-05T05:16:45.996Z,1.20
2023-02-05T05:22:17.150Z,1.45
2023-02-05T05:27:48.907Z,1.50
2023-02-05T05:33:20.077Z,1.15
2023-02-05T05:38:51.410Z,0.90
2023-02-05T05:44:22.666Z,1.58
2023-02-05T05:49:53.685Z,1.40
2023-02-05T05:55:24.924Z,1.42
2023-02-05T06:00:56.264Z,1.40
2023-02-05T06:06:27.418Z,1.48
2023-02-05T06:11:58.789Z,1.20
2023-02-05T06:17:30.079Z,1.50
2023-02-05T06:23:01.263Z,1.70
2023-02-05T06:28:32.521Z,1.70
2023-02-05T06:34:03.471Z,1.40
2023-02-05T06:39:34.807Z,1.38
2023-02-05T06:45:06.293Z,1.25
2023-02-05T06:50:37.631Z,1.60
2023-02-05T06:56:09.003Z,1.38
2023-02-05T07:01:40.181Z,1.20
2023-02-05T07:07:11.307Z,1.33
2023-02-05T07:12:42.661Z,1.50
2023-02-05T07:18:13.847Z,1.20
2023-02-05T07:23:45.714Z,1.52
2023-02-05T07:29:17.077Z,1.10
2023-02-05T07:34:48.222Z,1.10
2023-02-05T07:40:19.867Z,1.45
2023-02-05T07:45:58.487Z,1.40
2023-02-05T07:51:29.915Z,1.50
2023-02-05T07:57:02.339Z,1.42
2023-02-05T08:02:33.692Z,1.20
2023-02-05T08:08:05.348Z,1.50
2023-02-05T08:13:36.673Z,1.45
2023-02-05T08:19:12.550Z,1.10
2023-02-05T08:24:44.379Z,1.50
2023-02-05T08:30:18.298Z,1.30
2023-02-05T08:41:20.632Z,1.42
2023-02-05T08:46:51.980Z,1.30
2023-02-05T08:52:23.296Z,1.27
2023-02-05T08:57:54.565Z,1.38
2023-02-05T09:03:25.567Z,1.35
2023-02-05T09:08:56.810Z,1.08
2023-02-05T09:14:28.029Z,1.40
2023-02-05T09:19:59.408Z,1.38
2023-02-05T09:25:34.471Z,1.30
2023-02-05T09:31:24.342Z,1.30
2023-02-05T09:36:55.726Z,1.55
2023-02-05T09:42:35.258Z,1.30
2023-02-05T09:48:07.500Z,1.40
2023-02-05T09:53:42.991Z,1.40
2023-02-05T09:59:20.445Z,1.40
2023-02-05T10:04:55.189Z,1.30
2023-02-05T10:10:35.794Z,1.17
2023-02-05T10:16:11.096Z,1.50
2023-02-05T10:21:56.901Z,1.30
2023-02-05T10:27:35.838Z,1.30
2023-02-05T10:33:36.066Z,1.42
2023-02-05T10:39:14.456Z,1.20
2023-02-05T10:44:47.366Z,1.10
2023-02-05T10:50:48.557Z,1.50
2023-02-05T10:56:20.071Z,1.38
2023-02-05T11:01:51.929Z,1.40
2023-02-05T11:07:33.744Z,2.30
2023-02-05T11:13:18.967Z,1.25
2023-02-05T11:18:58.674Z,1.35
2023-02-05T11:24:36.315Z,1.27
2023-02-05T11:36:23.439Z,1.10
2023-02-05T11:41:56.819Z,1.17
2023-02-05T11:47:31.931Z,1.20
2023-02-05T11:53:12.469Z,1.40
2023-02-05T11:58:45.461Z,1.17
2023-02-05T12:04:21.337Z,1.37
2023-02-05T12:09:59.015Z,1.23
2023-02-05T12:15:37.704Z,1.58
2023-02-05T12:21:08.803Z,1.30
2023-02-05T12:26:42.701Z,1.50
2023-02-05T12:32:20.383Z,1.40
2023-02-05T12:38:32.465Z,1.27
2023-02-05T12:44:33.118Z,1.42
2023-02-05T12:50:26.158Z,1.50
2023-02-05T12:56:40.205Z,1.45
2023-02-05T13:02:25.326Z,1.10
2023-02-05T13:08:34.824Z,1.38
2023-02-05T13:14:11.699Z,1.45
2023-02-05T13:19:46.461Z,1.10
2023-02-05T13:25:37.964Z,1.60
2023-02-05T13:31:26.566Z,1.20
2023-02-05T13:37:28.627Z,1.45
2023-02-05T13:43:10.684Z,1.17
2023-02-05T13:49:10.065Z,1.20
2023-02-05T13:55:08.362Z,1.27
2023-02-05T14:00:43.934Z,1.10
2023-02-05T14:06:24.669Z,1.25
2023-02-05T14:11:58.497Z,1.40
2023-02-05T14:17:29.338Z,1.23
2023-02-05T14:23:02.726Z,1.40
2023-02-05T14:28:34.869Z,1.35
2023-02-05T14:34:29.063Z,1.40
2023-02-05T14:40:12.686Z,1.20
2023-02-05T14:45:46.840Z,1.65
2023-02-05T14:57:15.444Z,1.80
2023-02-05T15:03:17.230Z,1.50
2023-02-05T15:09:06.564Z,1.30
2023-02-05T15:14:41.745Z,1.60
2023-02-05T15:20:28.279Z,1.40
2023-02-05T15:26:05.892Z,1.73
2023-02-05T15:31:49.429Z,1.50
2023-02-05T15:37:27.313Z,1.60
2023-02-05T15:43:02.246Z,1.75
2023-02-05T15:48:35.964Z,1.40
2023-02-05T15:54:08.061Z,1.80
2023-02-05T15:59:40.226Z,1.75
2023-02-05T16:05:20.114Z,1.90
2023-02-05T16:10:58.418Z,1.75
2023-02-05T16:16:31.758Z,2.03
2023-02-05T16:22:31.538Z,2.10
2023-02-05T16:28:06.879Z,2.10
2023-02-05T16:33:42.219Z,2.03
2023-02-05T16:39:27.745Z,2.05
2023-02-05T16:45:18.609Z,2.00
2023-02-05T16:50:50.966Z,2.50
2023-02-05T16:56:24.279Z,2.50
2023-02-05T17:01:55.604Z,2.60
2023-02-05T17:07:27.349Z,2.38
2023-02-05T17:13:06.171Z,2.78
2023-02-05T17:18:38.257Z,2.15
2023-02-05T17:24:09.864Z,2.88
2023-02-05T17:29:41.099Z,2.33
2023-02-05T17:35:18.377Z,2.60
2023-02-05T17:40:50.415Z,2.55
2023-02-05T17:46:21.442Z,2.38
2023-02-05T17:51:52.669Z,2.40
2023-02-05T17:57:23.802Z,2.92
2023-02-05T18:02:54.995Z,2.65
2023-02-05T18:08:26.205Z,2.25
2023-02-05T18:13:57.468Z,2.63
2023-02-05T18:19:29.713Z,2.60
2023-02-05T18:25:01.105Z,2.40
2023-02-05T18:30:32.174Z,2.75
2023-02-05T18:36:07.523Z,2.65
2023-02-05T18:41:39.142Z,2.58
2023-02-05T18:47:11.201Z,2.50
2023-02-05T18:52:42.262Z,2.83
2023-02-05T18:58:13.280Z,3.67
2023-02-05T19:03:44.555Z,3.67
2023-02-05T19:09:15.713Z,3.40
2023-02-05T19:14:49.492Z,4.10
2023-02-05T19:20:20.713Z,3.95
2023-02-05T19:25:52.376Z,3.40
2023-02-05T19:31:25.944Z,3.70
2023-02-05T19:36:57.506Z,3.90
2023-02-05T19:42:30.538Z,3.75
2023-02-05T19:48:01.972Z,3.93
2023-02-05T19:53:34.197Z,3.63
2023-02-05T19:59:06.513Z,3.97
2023-02-05T20:04:40.954Z,3.90
2023-02-05T20:10:12.284Z,3.70
2023-02-05T20:15:43.456Z,4.00
2023-02-05T20:21:16.840Z,4.25
2023-02-05T20:26:48.798Z,3.83
2023-02-05T20:32:20.298Z,4.40
2023-02-05T20:37:51.498Z,4.93
2023-02-05T20:43:22.747Z,4.93
2023-02-05T20:48:54.072Z,4.75
2023-02-05T20:54:25.146Z,4.80
2023-02-05T20:59:56.310Z,5.68
2023-02-05T21:05:27.179Z,5.05
2023-02-05T21:10:58.513Z,5.13
2023-02-05T21:16:29.733Z,5.70
2023-02-05T21:22:00.714Z,5.22
2023-02-05T21:27:31.860Z,5.35
2023-02-05T21:33:03.458Z,6.00
2023-02-05T21:38:36.136Z,5.90
2023-02-05T21:44:07.224Z,5.60
2023-02-05T21:49:38.619Z,5.43
2023-02-05T21:55:10.157Z,5.38
2023-02-05T22:00:41.192Z,5.95
2023-02-05T22:06:12.415Z,5.95
2023-02-05T22:11:44.752Z,5.20
2023-02-05T22:17:16.121Z,6.15
2023-02-05T22:22:47.189Z,5.32
2023-02-05T22:28:17.995Z,6.07
2023-02-05T22:33:50.770Z,6.22
2023-02-05T22:39:21.988Z,6.45
2023-02-05T22:44:55.504Z,5.57
2023-02-05T22:50:26.567Z,6.17
2023-02-05T22:56:04.148Z,6.18
2023-02-05T23:01:36.736Z,6.22
2023-02-05T23:07:07.827Z,5.95
2023-02-05T23:12:38.794Z,5.25
2023-02-05T23:18:10.127Z,5.88
2023-02-05T23:23:42.065Z,6.05
2023-02-05T23:29:15.012Z,5.82
2023-02-05T23:34:46.078Z,5.80
2023-02-05T23:40:17.114Z,5.05
2023-02-05T23:45:49.868Z,5.13
2023-02-05T23:51:20.981Z,5.30
2023-02-05T23:56:52.313Z,5.60
